sensor_id;sensor_type;location;lat;lon;timestamp;pressure;altitude;pressure_sealevel;temperature;humidity
7730;BME280;3908;52.310;7.230;2023-02-19T00:02:17;51536.31;;;-145.83;100.00
7730;BME280;3908;52.310;7.230;2023-02-19T00:05:06;51518.69;;;-145.83;100.00
7730;BME280;3908;52.310;7.230;2023-02-19T00:07:53;51512.84;;;-145.83;100.00
7730;BME280;3908;52.310;7.230;2023-02-19T00:10:42;51485.44;;;-145.83;100.00
7730;BME280;3908;52.310;7.230;2023-02-19T00:13:34;51555.88;;;-145.83;100.00
7730;BME280;3908;52.310;7.230;2023-02-19T00:16:24;51528.47;;;-145.83;100.00
7730;BME280;3908;52.310;7.230;2023-02-19T00:19:14;51524.56;;;-145.83;100.00
7730;BME280;3908;52.310;7.230;2023-02-19T00:22:01;51532.41;;;-145.83;100.00
7730;BME280;3908;52.310;7.230;2023-02-19T00:24:48;51522.63;;;-145.83;100.00
7730;BME280;3908;52.310;7.230;2023-02-19T00:27:35;51514.78;;;-145.83;100.00
7730;BME280;3908;52.310;7.230;2023-02-19T00:30:23;51518.69;;;-145.83;100.00
7730;BME280;3908;52.310;7.230;2023-02-19T00:33:10;51505.00;;;-145.83;100.00
7730;BME280;3908;52.310;7.230;2023-02-19T00:35:59;51469.78;;;-145.83;100.00
7730;BME280;3908;52.310;7.230;2023-02-19T00:38:46;51528.47;;;-145.83;100.00
7730;BME280;3908;52.310;7.230;2023-02-19T00:41:33;51522.63;;;-145.83;100.00
7730;BME280;3908;52.310;7.230;2023-02-19T00:44:20;51506.97;;;-145.83;100.00
7730;BME280;3908;52.310;7.230;2023-02-19T00:47:09;51506.97;;;-145.83;100.00
7730;BME280;3908;52.310;7.230;2023-02-19T00:49:56;51528.47;;;-145.83;100.00
7730;BME280;3908;52.310;7.230;2023-02-19T00:52:43;51505.00;;;-145.83;100.00
7730;BME280;3908;52.310;7.230;2023-02-19T00:55:30;51522.63;;;-145.83;100.00
7730;BME280;3908;52.310;7.230;2023-02-19T00:58:16;51538.25;;;-145.83;100.00
7730;BME280;3908;52.310;7.230;2023-02-19T01:01:04;51524.56;;;-145.83;100.00
7730;BME280;3908;52.310;7.230;2023-02-19T01:03:53;51550.00;;;-145.83;100.00
7730;BME280;3908;52.310;7.230;2023-02-19T01:06:40;51510.88;;;-145.83;100.00
7730;BME280;3908;52.310;7.230;2023-02-19T01:09:27;51532.41;;;-145.83;100.00
7730;BME280;3908;52.310;7.230;2023-02-19T01:12:14;51508.91;;;-145.83;100.00
7730;BME280;3908;52.310;7.230;2023-02-19T01:15:01;51505.00;;;-145.83;100.00
7730;BME280;3908;52.310;7.230;2023-02-19T01:17:48;51555.88;;;-145.83;100.00
7730;BME280;3908;52.310;7.230;2023-02-19T01:20:38;51510.88;;;-145.83;100.00
7730;BME280;3908;52.310;7.230;2023-02-19T01:23:25;51520.66;;;-145.83;100.00
7730;BME280;3908;52.310;7.230;2023-02-19T01:26:15;51510.88;;;-145.83;100.00
7730;BME280;3908;52.310;7.230;2023-02-19T01:29:02;51520.66;;;-145.83;100.00
7730;BME280;3908;52.310;7.230;2023-02-19T01:31:49;51503.06;;;-145.83;100.00
7730;BME280;3908;52.310;7.230;2023-02-19T01:34:36;51542.19;;;-145.83;100.00
7730;BME280;3908;52.310;7.230;2023-02-19T01:37:24;51499.13;;;-145.83;100.00
7730;BME280;3908;52.310;7.230;2023-02-19T01:40:11;51534.34;;;-145.83;100.00
7730;BME280;3908;52.310;7.230;2023-02-19T01:42:58;51542.19;;;-145.83;100.00
7730;BME280;3908;52.310;7.230;2023-02-19T01:45:46;51526.53;;;-145.83;100.00
7730;BME280;3908;52.310;7.230;2023-02-19T01:48:35;51538.25;;;-145.83;100.00
7730;BME280;3908;52.310;7.230;2023-02-19T01:51:23;51544.13;;;-145.83;100.00
7730;BME280;3908;52.310;7.230;2023-02-19T01:54:12;51491.31;;;-145.83;100.00
7730;BME280;3908;52.310;7.230;2023-02-19T01:57:03;51542.19;;;-145.83;100.00
7730;BME280;3908;52.310;7.230;2023-02-19T01:59:56;51512.84;;;-145.83;100.00
7730;BME280;3908;52.310;7.230;2023-02-19T02:02:47;51489.34;;;-145.83;100.00
7730;BME280;3908;52.310;7.230;2023-02-19T02:05:43;51518.69;;;-145.83;100.00
7730;BME280;3908;52.310;7.230;2023-02-19T02:08:32;51505.00;;;-145.83;100.00
7730;BME280;3908;52.310;7.230;2023-02-19T02:11:41;51534.34;;;-145.83;100.00
7730;BME280;3908;52.310;7.230;2023-02-19T02:14:34;51508.91;;;-145.83;100.00
7730;BME280;3908;52.310;7.230;2023-02-19T02:17:25;51499.13;;;-145.83;100.00
7730;BME280;3908;52.310;7.230;2023-02-19T02:20:33;51522.63;;;-145.83;100.00
7730;BME280;3908;52.310;7.230;2023-02-19T02:23:28;51530.44;;;-145.83;100.00
7730;BME280;3908;52.310;7.230;2023-02-19T02:26:37;51520.66;;;-145.83;100.00
7730;BME280;3908;52.310;7.230;2023-02-19T02:29:51;51505.00;;;-145.83;100.00
7730;BME280;3908;52.310;7.230;2023-02-19T02:32:44;51516.75;;;-145.83;100.00
7730;BME280;3908;52.310;7.230;2023-02-19T02:35:41;51501.09;;;-145.83;100.00
7730;BME280;3908;52.310;7.230;2023-02-19T02:38:32;51522.63;;;-145.83;100.00
7730;BME280;3908;52.310;7.230;2023-02-19T02:41:19;51518.69;;;-145.83;100.00
7730;BME280;3908;52.310;7.230;2023-02-19T02:44:06;51503.06;;;-145.83;100.00
7730;BME280;3908;52.310;7.230;2023-02-19T02:46:55;51506.97;;;-145.83;100.00
7730;BME280;3908;52.310;7.230;2023-02-19T02:49:42;51506.97;;;-145.83;100.00
7730;BME280;3908;52.310;7.230;2023-02-19T02:52:40;51506.97;;;-145.83;100.00
7730;BME280;3908;52.310;7.230;2023-02-19T02:55:48;51487.41;;;-145.83;100.00
7730;BME280;3908;52.310;7.230;2023-02-19T02:58:37;51534.34;;;-145.83;100.00
7730;BME280;3908;52.310;7.230;2023-02-19T03:01:28;51497.19;;;-145.83;100.00
7730;BME280;3908;52.310;7.230;2023-02-19T03:04:38;51491.31;;;-145.83;100.00
7730;BME280;3908;52.310;7.230;2023-02-19T03:07:52;51501.09;;;-145.83;100.00
7730;BME280;3908;52.310;7.230;2023-02-19T03:10:42;51489.34;;;-145.83;100.00
7730;BME280;3908;52.310;7.230;2023-02-19T03:13:34;51528.47;;;-145.83;100.00
7730;BME280;3908;52.310;7.230;2023-02-19T03:16:42;51526.53;;;-145.83;100.00
7730;BME280;3908;52.310;7.230;2023-02-19T03:19:49;51536.31;;;-145.83;100.00
7730;BME280;3908;52.310;7.230;2023-02-19T03:22:40;51518.69;;;-145.83;100.00
7730;BME280;3908;52.310;7.230;2023-02-19T03:25:31;51495.22;;;-145.83;100.00
7730;BME280;3908;52.310;7.230;2023-02-19T03:28:39;51518.69;;;-145.83;100.00
7730;BME280;3908;52.310;7.230;2023-02-19T03:31:48;51512.84;;;-145.83;100.00
7730;BME280;3908;52.310;7.230;2023-02-19T03:34:40;51565.66;;;-145.83;100.00
7730;BME280;3908;52.310;7.230;2023-02-19T03:37:32;51512.84;;;-145.83;100.00
7730;BME280;3908;52.310;7.230;2023-02-19T03:40:24;51534.34;;;-145.83;100.00
7730;BME280;3908;52.310;7.230;2023-02-19T03:43:18;51508.91;;;-145.83;100.00
7730;BME280;3908;52.310;7.230;2023-02-19T03:46:10;51491.31;;;-145.83;100.00
7730;BME280;3908;52.310;7.230;2023-02-19T03:49:02;51530.44;;;-145.83;100.00
7730;BME280;3908;52.310;7.230;2023-02-19T03:51:56;51491.31;;;-145.83;100.00
7730;BME280;3908;52.310;7.230;2023-02-19T03:54:51;51512.84;;;-145.83;100.00
7730;BME280;3908;52.310;7.230;2023-02-19T03:57:48;51510.88;;;-145.83;100.00
7730;BME280;3908;52.310;7.230;2023-02-19T04:00:43;51510.88;;;-145.83;100.00
7730;BME280;3908;52.310;7.230;2023-02-19T04:03:37;51499.13;;;-145.83;100.00
7730;BME280;3908;52.310;7.230;2023-02-19T04:06:27;51505.00;;;-145.83;100.00
7730;BME280;3908;52.310;7.230;2023-02-19T04:09:16;51506.97;;;-145.83;100.00
7730;BME280;3908;52.310;7.230;2023-02-19T04:12:04;51536.31;;;-145.83;100.00
7730;BME280;3908;52.310;7.230;2023-02-19T04:14:53;51557.81;;;-145.83;100.00
7730;BME280;3908;52.310;7.230;2023-02-19T04:17:49;51495.22;;;-145.83;100.00
7730;BME280;3908;52.310;7.230;2023-02-19T04:20:41;51520.66;;;-145.83;100.00
7730;BME280;3908;52.310;7.230;2023-02-19T04:23:34;51501.09;;;-145.83;100.00
7730;BME280;3908;52.310;7.230;2023-02-19T04:26:22;51534.34;;;-145.83;100.00
7730;BME280;3908;52.310;7.230;2023-02-19T04:29:09;51542.19;;;-145.83;100.00
7730;BME280;3908;52.310;7.230;2023-02-19T04:31:56;51487.41;;;-145.83;100.00
7730;BME280;3908;52.310;7.230;2023-02-19T04:34:45;51483.47;;;-145.83;100.00
7730;BME280;3908;52.310;7.230;2023-02-19T04:37:32;51497.19;;;-145.83;100.00
7730;BME280;3908;52.310;7.230;2023-02-19T04:40:19;51495.22;;;-145.83;100.00
7730;BME280;3908;52.310;7.230;2023-02-19T04:43:06;51487.41;;;-145.83;100.00
7730;BME280;3908;52.310;7.230;2023-02-19T04:45:53;51495.22;;;-145.83;100.00
7730;BME280;3908;52.310;7.230;2023-02-19T04:48:40;51483.47;;;-145.83;100.00
7730;BME280;3908;52.310;7.230;2023-02-19T04:51:29;51487.41;;;-145.83;100.00
7730;BME280;3908;52.310;7.230;2023-02-19T04:54:16;51555.88;;;-145.83;100.00
7730;BME280;3908;52.310;7.230;2023-02-19T04:57:03;51522.63;;;-145.83;100.00
7730;BME280;3908;52.310;7.230;2023-02-19T04:59:51;51526.53;;;-145.83;100.00
7730;BME280;3908;52.310;7.230;2023-02-19T05:02:38;51518.69;;;-145.83;100.00
7730;BME280;3908;52.310;7.230;2023-02-19T05:05:25;51487.41;;;-145.83;100.00
7730;BME280;3908;52.310;7.230;2023-02-19T05:08:13;51503.06;;;-145.83;100.00
7730;BME280;3908;52.310;7.230;2023-02-19T05:11:02;51501.09;;;-145.83;100.00
7730;BME280;3908;52.310;7.230;2023-02-19T05:13:49;51485.44;;;-145.83;100.00
7730;BME280;3908;52.310;7.230;2023-02-19T05:16:36;51493.25;;;-145.83;100.00
7730;BME280;3908;52.310;7.230;2023-02-19T05:19:23;51512.84;;;-145.83;100.00
7730;BME280;3908;52.310;7.230;2023-02-19T05:22:10;51493.25;;;-145.83;100.00
7730;BME280;3908;52.310;7.230;2023-02-19T05:24:59;51505.00;;;-145.83;100.00
7730;BME280;3908;52.310;7.230;2023-02-19T05:27:46;51479.56;;;-145.83;100.00
7730;BME280;3908;52.310;7.230;2023-02-19T05:30:34;51487.41;;;-145.83;100.00
7730;BME280;3908;52.310;7.230;2023-02-19T05:33:22;51528.47;;;-145.83;100.00
7730;BME280;3908;52.310;7.230;2023-02-19T05:36:11;51491.31;;;-145.83;100.00
7730;BME280;3908;52.310;7.230;2023-02-19T05:38:59;51487.41;;;-145.83;100.00
7730;BME280;3908;52.310;7.230;2023-02-19T05:41:47;51497.19;;;-145.83;100.00
7730;BME280;3908;52.310;7.230;2023-02-19T05:44:34;51520.66;;;-145.83;100.00
7730;BME280;3908;52.310;7.230;2023-02-19T05:47:21;51471.75;;;-145.83;100.00
7730;BME280;3908;52.310;7.230;2023-02-19T05:50:08;51536.31;;;-145.83;100.00
7730;BME280;3908;52.310;7.230;2023-02-19T05:52:55;51518.69;;;-145.83;100.00
7730;BME280;3908;52.310;7.230;2023-02-19T05:55:42;51479.56;;;-145.83;100.00
7730;BME280;3908;52.310;7.230;2023-02-19T05:58:30;51495.22;;;-145.83;100.00
7730;BME280;3908;52.310;7.230;2023-02-19T06:01:18;51487.41;;;-145.83;100.00
7730;BME280;3908;52.310;7.230;2023-02-19T06:04:06;51528.47;;;-145.83;100.00
7730;BME280;3908;52.310;7.230;2023-02-19T06:06:53;51501.09;;;-145.83;100.00
7730;BME280;3908;52.310;7.230;2023-02-19T06:09:39;51520.66;;;-145.83;100.00
7730;BME280;3908;52.310;7.230;2023-02-19T06:12:26;51512.84;;;-145.83;100.00
7730;BME280;3908;52.310;7.230;2023-02-19T06:15:15;51489.34;;;-145.83;100.00
7730;BME280;3908;52.310;7.230;2023-02-19T06:18:03;51512.84;;;-145.83;100.00
7730;BME280;3908;52.310;7.230;2023-02-19T06:20:50;51471.75;;;-145.83;100.00
7730;BME280;3908;52.310;7.230;2023-02-19T06:23:37;51481.53;;;-145.83;100.00
7730;BME280;3908;52.310;7.230;2023-02-19T06:26:24;51505.00;;;-145.83;100.00
7730;BME280;3908;52.310;7.230;2023-02-19T06:29:11;51495.22;;;-145.83;100.00
7730;BME280;3908;52.310;7.230;2023-02-19T06:32:00;51493.25;;;-145.83;100.00
7730;BME280;3908;52.310;7.230;2023-02-19T06:34:47;51485.44;;;-145.83;100.00
7730;BME280;3908;52.310;7.230;2023-02-19T06:37:34;51489.34;;;-145.83;100.00
7730;BME280;3908;52.310;7.230;2023-02-19T06:40:21;51475.66;;;-145.83;100.00
7730;BME280;3908;52.310;7.230;2023-02-19T06:43:08;51460.00;;;-145.83;100.00
7730;BME280;3908;52.310;7.230;2023-02-19T06:45:56;51510.88;;;-145.83;100.00
7730;BME280;3908;52.310;7.230;2023-02-19T06:48:45;51495.22;;;-145.83;100.00
7730;BME280;3908;52.310;7.230;2023-02-19T06:51:32;51465.88;;;-145.83;100.00
7730;BME280;3908;52.310;7.230;2023-02-19T06:54:19;51475.66;;;-145.83;100.00
7730;BME280;3908;52.310;7.230;2023-02-19T06:57:06;51487.41;;;-145.83;100.00
7730;BME280;3908;52.310;7.230;2023-02-19T06:59:53;51499.13;;;-145.83;100.00
7730;BME280;3908;52.310;7.230;2023-02-19T07:02:40;51489.34;;;-145.83;100.00
7730;BME280;3908;52.310;7.230;2023-02-19T07:05:29;51477.63;;;-145.83;100.00
7730;BME280;3908;52.310;7.230;2023-02-19T07:08:16;51501.09;;;-145.83;100.00
7730;BME280;3908;52.310;7.230;2023-02-19T07:11:03;51465.88;;;-145.83;100.00
7730;BME280;3908;52.310;7.230;2023-02-19T07:13:53;51501.09;;;-145.83;100.00
7730;BME280;3908;52.310;7.230;2023-02-19T07:16:41;51469.78;;;-145.83;100.00
7730;BME280;3908;52.310;7.230;2023-02-19T07:19:28;51463.91;;;-145.83;100.00
7730;BME280;3908;52.310;7.230;2023-02-19T07:22:17;51460.00;;;-145.83;100.00
7730;BME280;3908;52.310;7.230;2023-02-19T07:25:04;51477.63;;;-145.83;100.00
7730;BME280;3908;52.310;7.230;2023-02-19T07:27:51;51483.47;;;-145.83;100.00
7730;BME280;3908;52.310;7.230;2023-02-19T07:30:38;51481.53;;;-145.83;100.00
7730;BME280;3908;52.310;7.230;2023-02-19T07:33:25;51483.47;;;-145.83;100.00
7730;BME280;3908;52.310;7.230;2023-02-19T07:36:13;51491.31;;;-145.83;100.00
7730;BME280;3908;52.310;7.230;2023-02-19T07:39:03;51471.75;;;-145.83;100.00
7730;BME280;3908;52.310;7.230;2023-02-19T07:41:50;51456.09;;;-145.83;100.00
7730;BME280;3908;52.310;7.230;2023-02-19T07:44:37;51452.19;;;-145.83;100.00
7730;BME280;3908;52.310;7.230;2023-02-19T07:47:24;51460.00;;;-145.83;100.00
7730;BME280;3908;52.310;7.230;2023-02-19T07:50:11;51485.44;;;-145.83;100.00
7730;BME280;3908;52.310;7.230;2023-02-19T07:52:58;51475.66;;;-145.83;100.00
7730;BME280;3908;52.310;7.230;2023-02-19T07:55:46;51430.66;;;-145.83;100.00
7730;BME280;3908;52.310;7.230;2023-02-19T07:58:34;51505.00;;;-145.83;100.00
7730;BME280;3908;52.310;7.230;2023-02-19T08:01:22;51473.69;;;-145.83;100.00
7730;BME280;3908;52.310;7.230;2023-02-19T08:04:29;51461.97;;;-145.83;100.00
7730;BME280;3908;52.310;7.230;2023-02-19T08:07:15;51434.56;;;-145.83;100.00
7730;BME280;3908;52.310;7.230;2023-02-19T08:10:03;51461.97;;;-145.83;100.00
7730;BME280;3908;52.310;7.230;2023-02-19T08:13:11;51467.84;;;-145.83;100.00
7730;BME280;3908;52.310;7.230;2023-02-19T08:16:10;51424.78;;;-145.83;100.00
7730;BME280;3908;52.310;7.230;2023-02-19T08:18:57;51426.75;;;-145.83;100.00
7730;BME280;3908;52.310;7.230;2023-02-19T08:21:45;51477.63;;;-145.83;100.00
7730;BME280;3908;52.310;7.230;2023-02-19T08:24:31;51481.53;;;-145.83;100.00
7730;BME280;3908;52.310;7.230;2023-02-19T08:27:18;51446.31;;;-145.83;100.00
7730;BME280;3908;52.310;7.230;2023-02-19T08:30:08;51411.09;;;-145.83;100.00
7730;BME280;3908;52.310;7.230;2023-02-19T08:32:56;51475.66;;;-145.83;100.00
7730;BME280;3908;52.310;7.230;2023-02-19T08:35:44;51458.06;;;-145.83;100.00
7730;BME280;3908;52.310;7.230;2023-02-19T08:38:32;51452.19;;;-145.83;100.00
7730;BME280;3908;52.310;7.230;2023-02-19T08:41:20;51440.44;;;-145.83;100.00
7730;BME280;3908;52.310;7.230;2023-02-19T08:44:07;51448.28;;;-145.83;100.00
7730;BME280;3908;52.310;7.230;2023-02-19T08:46:56;51458.06;;;-145.83;100.00
7730;BME280;3908;52.310;7.230;2023-02-19T08:49:43;51475.66;;;-145.83;100.00
7730;BME280;3908;52.310;7.230;2023-02-19T08:52:30;51475.66;;;-145.83;100.00
7730;BME280;3908;52.310;7.230;2023-02-19T08:55:17;51465.88;;;-145.83;100.00
7730;BME280;3908;52.310;7.230;2023-02-19T08:58:04;51446.31;;;-145.83;100.00
7730;BME280;3908;52.310;7.230;2023-02-19T09:00:51;51481.53;;;-145.83;100.00
7730;BME280;3908;52.310;7.230;2023-02-19T09:03:40;51499.13;;;-145.83;100.00
7730;BME280;3908;52.310;7.230;2023-02-19T09:06:27;51475.66;;;-145.83;100.00
7730;BME280;3908;52.310;7.230;2023-02-19T09:09:14;51422.84;;;-145.83;100.00
7730;BME280;3908;52.310;7.230;2023-02-19T09:12:03;51465.88;;;-145.83;100.00
7730;BME280;3908;52.310;7.230;2023-02-19T09:14:50;51487.41;;;-145.83;100.00
7730;BME280;3908;52.310;7.230;2023-02-19T09:17:37;51467.84;;;-145.83;100.00
7730;BME280;3908;52.310;7.230;2023-02-19T09:20:25;51465.88;;;-145.83;100.00
7730;BME280;3908;52.310;7.230;2023-02-19T09:23:12;51463.91;;;-145.83;100.00
7730;BME280;3908;52.310;7.230;2023-02-19T09:25:59;51465.88;;;-145.83;100.00
7730;BME280;3908;52.310;7.230;2023-02-19T09:28:47;51434.56;;;-145.83;100.00
7730;BME280;3908;52.310;7.230;2023-02-19T09:31:34;51448.28;;;-145.83;100.00
7730;BME280;3908;52.310;7.230;2023-02-19T09:34:21;51422.84;;;-145.83;100.00
7730;BME280;3908;52.310;7.230;2023-02-19T09:37:10;51452.19;;;-145.83;100.00
7730;BME280;3908;52.310;7.230;2023-02-19T09:39:57;51452.19;;;-145.83;100.00
7730;BME280;3908;52.310;7.230;2023-02-19T09:42:44;51438.50;;;-145.83;100.00
7730;BME280;3908;52.310;7.230;2023-02-19T09:45:31;51477.63;;;-145.83;100.00
7730;BME280;3908;52.310;7.230;2023-02-19T09:48:18;51463.91;;;-145.83;100.00
7730;BME280;3908;52.310;7.230;2023-02-19T09:51:07;51440.44;;;-145.83;100.00
7730;BME280;3908;52.310;7.230;2023-02-19T09:53:57;51489.34;;;-145.83;100.00
7730;BME280;3908;52.310;7.230;2023-02-19T09:56:45;51479.56;;;-145.83;100.00
7730;BME280;3908;52.310;7.230;2023-02-19T09:59:38;51436.53;;;-145.83;100.00
7730;BME280;3908;52.310;7.230;2023-02-19T10:02:26;51477.63;;;-145.83;100.00
7730;BME280;3908;52.310;7.230;2023-02-19T10:05:15;51489.34;;;-145.83;100.00
7730;BME280;3908;52.310;7.230;2023-02-19T10:08:04;51456.09;;;-145.83;100.00
7730;BME280;3908;52.310;7.230;2023-02-19T10:10:54;51493.25;;;-145.83;100.00
7730;BME280;3908;52.310;7.230;2023-02-19T10:13:44;51495.22;;;-145.83;100.00
7730;BME280;3908;52.310;7.230;2023-02-19T10:16:32;51493.25;;;-145.83;100.00
7730;BME280;3908;52.310;7.230;2023-02-19T10:19:20;51508.91;;;-145.83;100.00
7730;BME280;3908;52.310;7.230;2023-02-19T10:22:08;51475.66;;;-145.83;100.00
7730;BME280;3908;52.310;7.230;2023-02-19T10:24:57;51479.56;;;-145.83;100.00
7730;BME280;3908;52.310;7.230;2023-02-19T10:27:46;51444.34;;;-145.83;100.00
7730;BME280;3908;52.310;7.230;2023-02-19T10:30:34;51493.25;;;-145.83;100.00
7730;BME280;3908;52.310;7.230;2023-02-19T10:33:22;51440.44;;;-145.83;100.00
7730;BME280;3908;52.310;7.230;2023-02-19T10:36:21;51465.88;;;-145.83;100.00
7730;BME280;3908;52.310;7.230;2023-02-19T10:39:29;51481.53;;;-145.83;100.00
7730;BME280;3908;52.310;7.230;2023-02-19T10:42:21;51469.78;;;-145.83;100.00
7730;BME280;3908;52.310;7.230;2023-02-19T10:45:16;51503.06;;;-145.83;100.00
7730;BME280;3908;52.310;7.230;2023-02-19T10:48:05;51469.78;;;-145.83;100.00
7730;BME280;3908;52.310;7.230;2023-02-19T10:50:54;51440.44;;;-145.83;100.00
7730;BME280;3908;52.310;7.230;2023-02-19T10:53:45;51458.06;;;-145.83;100.00
7730;BME280;3908;52.310;7.230;2023-02-19T10:56:32;51469.78;;;-145.83;100.00
7730;BME280;3908;52.310;7.230;2023-02-19T10:59:23;51460.00;;;-145.83;100.00
7730;BME280;3908;52.310;7.230;2023-02-19T11:02:17;51475.66;;;-145.83;100.00
7730;BME280;3908;52.310;7.230;2023-02-19T11:05:14;51503.06;;;-145.83;100.00
7730;BME280;3908;52.310;7.230;2023-02-19T11:08:02;51493.25;;;-145.83;100.00
7730;BME280;3908;52.310;7.230;2023-02-19T11:10:49;51497.19;;;-145.83;100.00
7730;BME280;3908;52.310;7.230;2023-02-19T11:13:37;51475.66;;;-145.83;100.00
7730;BME280;3908;52.310;7.230;2023-02-19T11:16:36;51493.25;;;-145.83;100.00
7730;BME280;3908;52.310;7.230;2023-02-19T11:19:28;51479.56;;;-145.83;100.00
7730;BME280;3908;52.310;7.230;2023-02-19T11:22:19;51469.78;;;-145.83;100.00
7730;BME280;3908;52.310;7.230;2023-02-19T11:25:18;51489.34;;;-145.83;100.00
7730;BME280;3908;52.310;7.230;2023-02-19T11:28:18;51473.69;;;-145.83;100.00
7730;BME280;3908;52.310;7.230;2023-02-19T11:31:18;51485.44;;;-145.83;100.00
7730;BME280;3908;52.310;7.230;2023-02-19T11:34:24;51479.56;;;-145.83;100.00
7730;BME280;3908;52.310;7.230;2023-02-19T11:37:17;51499.13;;;-145.83;100.00
7730;BME280;3908;52.310;7.230;2023-02-19T11:40:07;51505.00;;;-145.83;100.00
7730;BME280;3908;52.310;7.230;2023-02-19T11:43:01;51473.69;;;-145.83;100.00
7730;BME280;3908;52.310;7.230;2023-02-19T11:45:57;51479.56;;;-145.83;100.00
7730;BME280;3908;52.310;7.230;2023-02-19T11:48:52;51454.13;;;-145.83;100.00
7730;BME280;3908;52.310;7.230;2023-02-19T11:51:56;51495.22;;;-145.83;100.00
7730;BME280;3908;52.310;7.230;2023-02-19T11:54:54;51499.13;;;-145.83;100.00
7730;BME280;3908;52.310;7.230;2023-02-19T11:57:45;51501.09;;;-145.83;100.00
7730;BME280;3908;52.310;7.230;2023-02-19T12:00:38;51491.31;;;-145.83;100.00
7730;BME280;3908;52.310;7.230;2023-02-19T12:03:46;51493.25;;;-145.83;100.00
7730;BME280;3908;52.310;7.230;2023-02-19T12:06:43;51460.00;;;-145.83;100.00
7730;BME280;3908;52.310;7.230;2023-02-19T12:09:46;51501.09;;;-145.83;99.79
7730;BME280;3908;52.310;7.230;2023-02-19T12:12:54;51465.88;;;-145.83;100.00
7730;BME280;3908;52.310;7.230;2023-02-19T12:15:57;51489.34;;;-145.83;98.52
7730;BME280;3908;52.310;7.230;2023-02-19T12:19:10;51483.47;;;-145.83;98.09
7730;BME280;3908;52.310;7.230;2023-02-19T12:22:14;51487.41;;;-145.83;100.00
7730;BME280;3908;52.310;7.230;2023-02-19T12:28:45;51491.31;;;-145.83;99.30
7730;BME280;3908;52.310;7.230;2023-02-19T12:31:54;51510.88;;;-145.83;95.46
7730;BME280;3908;52.310;7.230;2023-02-19T12:35:04;51477.63;;;-145.83;98.61
7730;BME280;3908;52.310;7.230;2023-02-19T12:38:04;51508.91;;;-145.83;97.91
7730;BME280;3908;52.310;7.230;2023-02-19T12:41:15;51460.00;;;-145.83;95.00
7730;BME280;3908;52.310;7.230;2023-02-19T12:44:11;51510.88;;;-145.83;95.54
7730;BME280;3908;52.310;7.230;2023-02-19T12:47:01;51508.91;;;-145.83;97.98
7730;BME280;3908;52.310;7.230;2023-02-19T12:49:59;51501.09;;;-145.83;95.67
7730;BME280;3908;52.310;7.230;2023-02-19T12:52:52;51503.06;;;-145.83;98.10
7730;BME280;3908;52.310;7.230;2023-02-19T12:55:42;51526.53;;;-145.83;92.83
7730;BME280;3908;52.310;7.230;2023-02-19T12:58:36;51475.66;;;-145.83;89.84
7730;BME280;3908;52.310;7.230;2023-02-19T13:01:29;51512.84;;;-145.83;90.08
7730;BME280;3908;52.310;7.230;2023-02-19T13:04:31;51499.13;;;-145.83;92.31
7730;BME280;3908;52.310;7.230;2023-02-19T13:07:25;51463.91;;;-145.83;92.32
7730;BME280;3908;52.310;7.230;2023-02-19T13:10:25;51506.97;;;-145.83;91.59
7730;BME280;3908;52.310;7.230;2023-02-19T13:13:18;51512.84;;;-145.83;97.49
7730;BME280;3908;52.310;7.230;2023-02-19T13:16:09;51524.56;;;-145.83;100.00
7730;BME280;3908;52.310;7.230;2023-02-19T13:19:03;51524.56;;;-145.83;98.89
7730;BME280;3908;52.310;7.230;2023-02-19T13:21:56;51526.53;;;-145.83;98.25
7730;BME280;3908;52.310;7.230;2023-02-19T13:25:06;51524.56;;;-145.83;99.25
7730;BME280;3908;52.310;7.230;2023-02-19T13:28:03;51505.00;;;-145.83;92.99
7730;BME280;3908;52.310;7.230;2023-02-19T13:31:12;51510.88;;;-145.83;90.43
7730;BME280;3908;52.310;7.230;2023-02-19T13:34:18;51495.22;;;-145.83;89.50
7730;BME280;3908;52.310;7.230;2023-02-19T13:37:09;51548.03;;;-145.83;90.03
7730;BME280;3908;52.310;7.230;2023-02-19T13:39:57;51471.75;;;-145.83;92.24
7730;BME280;3908;52.310;7.230;2023-02-19T13:42:52;51491.31;;;-145.83;91.01
7730;BME280;3908;52.310;7.230;2023-02-19T13:45:42;51471.75;;;-145.83;92.45
7730;BME280;3908;52.310;7.230;2023-02-19T13:48:31;51475.66;;;-145.83;95.20
7730;BME280;3908;52.310;7.230;2023-02-19T13:51:46;51461.97;;;-145.83;96.74
7730;BME280;3908;52.310;7.230;2023-02-19T13:54:35;51491.31;;;-145.83;96.21
7730;BME280;3908;52.310;7.230;2023-02-19T13:57:26;51497.19;;;-145.83;96.62
7730;BME280;3908;52.310;7.230;2023-02-19T14:03:46;51471.75;;;-145.83;99.49
7730;BME280;3908;52.310;7.230;2023-02-19T14:07:21;51499.13;;;-145.83;99.51
7730;BME280;3908;52.310;7.230;2023-02-19T14:10:12;51475.66;;;-145.83;97.20
7730;BME280;3908;52.310;7.230;2023-02-19T14:12:59;51506.97;;;-145.83;97.89
7730;BME280;3908;52.310;7.230;2023-02-19T14:15:48;51440.44;;;-145.83;96.64
7730;BME280;3908;52.310;7.230;2023-02-19T14:18:44;51477.63;;;-145.83;98.17
7730;BME280;3908;52.310;7.230;2023-02-19T14:21:36;51452.19;;;-145.83;95.40
7730;BME280;3908;52.310;7.230;2023-02-19T14:24:24;51483.47;;;-145.83;96.05
7730;BME280;3908;52.310;7.230;2023-02-19T14:27:12;51493.25;;;-145.83;94.03
7730;BME280;3908;52.310;7.230;2023-02-19T14:29:59;51469.78;;;-145.83;94.43
7730;BME280;3908;52.310;7.230;2023-02-19T14:32:47;51460.00;;;-145.83;95.34
7730;BME280;3908;52.310;7.230;2023-02-19T14:35:37;51520.66;;;-145.83;94.81
7730;BME280;3908;52.310;7.230;2023-02-19T14:38:27;51495.22;;;-145.83;95.15
7730;BME280;3908;52.310;7.230;2023-02-19T14:41:17;51493.25;;;-145.83;98.36
7730;BME280;3908;52.310;7.230;2023-02-19T14:44:14;51489.34;;;-145.83;96.40
7730;BME280;3908;52.310;7.230;2023-02-19T14:47:04;51501.09;;;-145.83;96.28
7730;BME280;3908;52.310;7.230;2023-02-19T14:49:54;51503.06;;;-145.83;100.00
7730;BME280;3908;52.310;7.230;2023-02-19T14:52:47;51493.25;;;-145.83;94.93
7730;BME280;3908;52.310;7.230;2023-02-19T14:55:37;51479.56;;;-145.83;97.26
7730;BME280;3908;52.310;7.230;2023-02-19T14:58:31;51479.56;;;-145.83;98.61
7730;BME280;3908;52.310;7.230;2023-02-19T15:01:27;51487.41;;;-145.83;97.74
7730;BME280;3908;52.310;7.230;2023-02-19T15:04:21;51510.88;;;-145.83;93.43
7730;BME280;3908;52.310;7.230;2023-02-19T15:07:12;51458.06;;;-145.83;94.95